createdAt,value
2023-04-22T00:02:23.537Z,13.38
2023-04-22T00:05:26.925Z,17.90
2023-04-22T00:08:29.359Z,16.13
2023-04-22T00:11:31.941Z,15.07
2023-04-22T00:14:35.088Z,17.17
2023-04-22T00:17:37.668Z,15.40
2023-04-22T00:20:43.048Z,19.05
2023-04-22T00:23:48.092Z,16.35
2023-04-22T00:26:50.509Z,15.87
2023-04-22T00:29:52.719Z,18.00
2023-04-22T00:32:55.276Z,16.65
2023-04-22T00:35:57.685Z,16.23
2023-04-22T00:38:59.989Z,17.33
2023-04-22T00:42:03.181Z,16.80
2023-04-22T00:45:12.738Z,17.63
2023-04-22T00:48:15.710Z,17.23
2023-04-22T00:51:17.997Z,17.30
2023-04-22T00:54:20.265Z,15.68
2023-04-22T00:57:22.772Z,20.50
2023-04-22T01:00:27.416Z,18.35
2023-04-22T01:03:30.948Z,17.25
2023-04-22T01:06:35.476Z,17.70
2023-04-22T01:09:40.108Z,18.17
2023-04-22T01:12:42.822Z,17.57
2023-04-22T01:15:46.285Z,17.27
2023-04-22T01:18:48.590Z,17.17
2023-04-22T01:21:51.953Z,17.60
2023-04-22T01:24:54.999Z,18.10
2023-04-22T01:27:57.622Z,18.73
2023-04-22T01:30:59.924Z,18.67
2023-04-22T01:34:02.240Z,17.38
2023-04-22T01:37:04.764Z,18.27
2023-04-22T01:40:09.645Z,16.90
2023-04-22T01:43:12.072Z,14.60
2023-04-22T01:46:17.086Z,16.95
2023-04-22T01:49:21.247Z,15.00
2023-04-22T01:52:23.613Z,15.13
2023-04-22T01:55:25.860Z,18.50
2023-04-22T01:58:33.292Z,16.93
2023-04-22T02:01:35.848Z,16.30
2023-04-22T02:04:38.269Z,13.75
2023-04-22T02:07:41.183Z,18.05
2023-04-22T02:10:43.620Z,15.65
2023-04-22T02:13:45.999Z,18.27
2023-04-22T02:16:49.480Z,16.52
2023-04-22T02:19:52.294Z,15.40
2023-04-22T02:22:54.798Z,17.27
2023-04-22T02:25:57.252Z,17.60
2023-04-22T02:28:59.618Z,17.10
2023-04-22T02:32:02.625Z,18.23
2023-04-22T02:35:05.458Z,18.27
2023-04-22T02:38:07.774Z,18.73
2023-04-22T02:41:10.080Z,16.08
2023-04-22T02:44:12.579Z,16.80
2023-04-22T02:47:14.908Z,16.30
2023-04-22T02:50:17.248Z,18.05
2023-04-22T02:53:19.634Z,14.88
2023-04-22T02:56:22.054Z,15.85
2023-04-22T02:59:24.388Z,14.97
2023-04-22T03:02:27.082Z,16.23
2023-04-22T03:05:41.700Z,16.67
2023-04-22T03:08:44.585Z,17.17
2023-04-22T03:11:46.829Z,16.85
2023-04-22T03:14:49.310Z,16.53
2023-04-22T03:17:51.785Z,18.80
2023-04-22T03:20:55.517Z,16.60
2023-04-22T03:23:59.679Z,18.83
2023-04-22T03:27:05.455Z,22.88
2023-04-22T03:30:08.926Z,15.73
2023-04-22T03:33:11.969Z,22.05
2023-04-22T03:36:22.901Z,21.42
2023-04-22T03:39:25.523Z,16.13
2023-04-22T03:42:27.846Z,17.48
2023-04-22T03:45:31.618Z,17.20
2023-04-22T03:48:57.823Z,18.65
2023-04-22T03:52:03.989Z,18.30
2023-04-22T03:55:06.850Z,17.85
2023-04-22T03:58:10.900Z,18.92
2023-04-22T04:01:13.863Z,22.83
2023-04-22T04:04:19.378Z,18.52
2023-04-22T04:07:32.694Z,20.20
2023-04-22T04:10:37.153Z,18.67
2023-04-22T04:13:40.101Z,19.38
2023-04-22T04:16:55.602Z,17.87
2023-04-22T04:20:04.399Z,21.00
2023-04-22T04:23:08.021Z,22.48
2023-04-22T04:26:11.116Z,15.60
2023-04-22T04:29:20.258Z,15.75
2023-04-22T04:32:34.415Z,16.93
2023-04-22T04:35:41.726Z,17.48
2023-04-22T04:38:47.716Z,18.33
2023-04-22T04:41:50.307Z,19.02
2023-04-22T04:44:53.874Z,14.35
2023-04-22T04:47:58.513Z,17.30
2023-04-22T04:51:08.092Z,16.30
2023-04-22T04:54:15.910Z,14.98
2023-04-22T04:57:18.785Z,17.40
2023-04-22T05:00:21.416Z,14.48
2023-04-22T05:03:24.613Z,13.53
2023-04-22T05:06:27.330Z,14.15
2023-04-22T05:09:38.288Z,16.05
2023-04-22T05:12:41.880Z,13.70
2023-04-22T05:15:48.820Z,17.98
2023-04-22T05:18:51.696Z,16.83
2023-04-22T05:21:53.989Z,14.57
2023-04-22T05:24:56.284Z,11.60
2023-04-22T05:27:58.745Z,14.77
2023-04-22T05:31:05.076Z,12.90
2023-04-22T05:34:07.758Z,18.40
2023-04-22T05:37:11.146Z,12.45
2023-04-22T05:40:18.697Z,15.15
2023-04-22T05:43:21.252Z,12.82
2023-04-22T05:46:31.570Z,12.13
2023-04-22T05:49:34.671Z,10.77
2023-04-22T05:52:48.820Z,14.50
2023-04-22T05:55:53.971Z,10.10
2023-04-22T05:58:56.236Z,15.02
2023-04-22T06:01:59.958Z,13.10
2023-04-22T06:05:02.589Z,13.13
2023-04-22T06:08:05.278Z,14.13
2023-04-22T06:11:10.654Z,10.93
2023-04-22T06:14:13.270Z,10.18
2023-04-22T06:17:17.660Z,12.00
2023-04-22T06:20:20.324Z,10.77
2023-04-22T06:23:22.559Z,9.30
2023-04-22T06:26:24.954Z,14.23
2023-04-22T06:29:27.267Z,12.38
2023-04-22T06:32:29.551Z,10.95
2023-04-22T06:35:32.512Z,11.63
2023-04-22T06:38:35.935Z,8.73
2023-04-22T06:42:01.825Z,7.63
2023-04-22T06:45:21.379Z,9.18
2023-04-22T06:48:49.772Z,11.77
2023-04-22T06:52:10.619Z,8.00
2023-04-22T06:55:13.295Z,7.50
2023-04-22T06:58:15.619Z,8.55
2023-04-22T07:01:18.951Z,10.45
2023-04-22T07:04:22.144Z,8.98
2023-04-22T07:07:25.563Z,7.60
2023-04-22T07:10:28.431Z,7.28
2023-04-22T07:13:49.414Z,8.30
2023-04-22T07:16:51.872Z,10.65
2023-04-22T07:19:54.395Z,9.80
2023-04-22T07:22:56.691Z,7.87
2023-04-22T07:25:59.144Z,8.90
2023-04-22T07:29:01.602Z,9.48
2023-04-22T07:32:04.182Z,6.43
2023-04-22T07:35:07.254Z,6.10
2023-04-22T07:38:10.075Z,6.70
2023-04-22T07:41:13.768Z,7.45
2023-04-22T07:44:18.533Z,8.93
2023-04-22T07:47:21.353Z,9.60
2023-04-22T07:50:23.901Z,7.63
2023-04-22T07:53:26.325Z,8.67
2023-04-22T07:56:28.729Z,7.85
2023-04-22T07:59:30.995Z,8.27
2023-04-22T08:02:33.739Z,8.07
2023-04-22T08:05:36.094Z,7.53
2023-04-22T08:08:38.985Z,8.03
2023-04-22T08:11:41.298Z,6.97
2023-04-22T08:14:43.637Z,9.68
2023-04-22T08:17:46.100Z,8.70
2023-04-22T08:20:48.523Z,8.07
2023-04-22T08:23:50.910Z,7.03
2023-04-22T08:26:53.302Z,7.10
2023-04-22T08:29:56.327Z,7.15
2023-04-22T08:32:59.862Z,9.95
2023-04-22T08:36:03.925Z,8.85
2023-04-22T08:39:06.416Z,11.57
2023-04-22T08:42:09.528Z,8.60
2023-04-22T08:45:13.777Z,8.23
2023-04-22T08:48:16.827Z,9.43
2023-04-22T08:51:19.158Z,6.13
2023-04-22T08:54:21.632Z,11.43
2023-04-22T08:57:24.352Z,8.45
2023-04-22T09:00:27.219Z,7.00
2023-04-22T09:03:31.070Z,7.25
2023-04-22T09:06:33.628Z,7.55
2023-04-22T09:09:36.775Z,7.63
2023-04-22T09:12:41.209Z,8.48
2023-04-22T09:15:43.486Z,7.70
2023-04-22T09:18:48.492Z,7.07
2023-04-22T09:21:52.799Z,9.93
2023-04-22T09:24:56.556Z,8.37
2023-04-22T09:27:59.693Z,7.20
2023-04-22T09:31:02.985Z,7.35
2023-04-22T09:34:05.317Z,7.20
2023-04-22T09:37:07.745Z,8.85
2023-04-22T09:40:10.265Z,9.53
2023-04-22T09:43:13.488Z,12.13
2023-04-22T09:46:15.869Z,9.43
2023-04-22T09:49:18.340Z,7.43
2023-04-22T09:52:26.867Z,11.50
2023-04-22T09:55:32.125Z,8.73
2023-04-22T09:58:39.450Z,8.43
2023-04-22T10:01:43.075Z,9.30
2023-04-22T10:04:47.311Z,8.73
2023-04-22T10:07:50.290Z,11.32
2023-04-22T10:10:53.723Z,8.13
2023-04-22T10:13:56.031Z,7.63
2023-04-22T10:17:01.179Z,9.02
2023-04-22T10:20:07.847Z,8.50
2023-04-22T10:23:21.401Z,8.25
2023-04-22T10:26:56.160Z,8.63
2023-04-22T10:29:59.287Z,6.75
2023-04-22T10:33:31.912Z,7.68
2023-04-22T10:36:34.190Z,8.77
2023-04-22T10:39:36.764Z,9.05
2023-04-22T10:42:43.302Z,9.03
2023-04-22T10:45:46.715Z,8.40
2023-04-22T10:48:50.391Z,6.13
2023-04-22T10:52:01.058Z,10.18
2023-04-22T10:55:04.034Z,6.30
2023-04-22T10:58:22.035Z,8.33
2023-04-22T11:01:27.964Z,6.22
2023-04-22T11:04:30.486Z,5.35
2023-04-22T11:07:35.012Z,8.75
2023-04-22T11:10:44.379Z,12.30
2023-04-22T11:13:50.815Z,6.27
2023-04-22T11:16:53.933Z,7.05
2023-04-22T11:19:57.908Z,9.13
2023-04-22T11:23:00.486Z,6.68
2023-04-22T11:26:05.032Z,7.60
2023-04-22T11:29:08.681Z,7.10
2023-04-22T11:32:11.883Z,6.40
2023-04-22T11:35:35.096Z,8.77
2023-04-22T11:38:37.631Z,5.93
2023-04-22T11:41:41.736Z,6.57
2023-04-22T11:44:45.055Z,9.77
2023-04-22T11:47:50.258Z,25.02
2023-04-22T11:51:10.395Z,10.68
2023-04-22T11:54:12.737Z,7.07
2023-04-22T11:57:16.695Z,6.32
2023-04-22T12:00:19.095Z,5.47
2023-04-22T12:03:24.699Z,7.47
2023-04-22T12:06:31.627Z,6.25
2023-04-22T12:09:37.489Z,6.00
2023-04-22T12:12:40.423Z,7.00
2023-04-22T12:15:44.147Z,7.53
2023-04-22T12:18:51.481Z,7.05
2023-04-22T12:21:57.208Z,5.03
2023-04-22T12:25:02.128Z,7.15
2023-04-22T12:28:04.478Z,7.53
2023-04-22T12:31:07.716Z,7.90
2023-04-22T12:34:10.070Z,8.07
2023-04-22T12:37:12.623Z,6.95
2023-04-22T12:40:14.917Z,7.47
2023-04-22T12:43:17.933Z,6.25
2023-04-22T12:46:20.367Z,8.07
2023-04-22T12:49:22.700Z,5.03
2023-04-22T12:52:24.988Z,6.40
2023-04-22T12:55:27.644Z,7.22
2023-04-22T12:58:29.988Z,7.88
2023-04-22T13:01:33.800Z,7.70
2023-04-22T13:04:37.651Z,7.25
2023-04-22T13:07:45.437Z,6.78
2023-04-22T13:10:49.396Z,6.28
2023-04-22T13:13:51.791Z,6.57
2023-04-22T13:16:54.116Z,8.17
2023-04-22T13:19:56.806Z,8.93
2023-04-22T13:22:59.118Z,9.60
2023-04-22T13:26:01.823Z,6.00
2023-04-22T13:29:04.696Z,6.68
2023-04-22T13:32:08.232Z,8.97
2023-04-22T13:35:10.854Z,7.20
2023-04-22T13:38:13.340Z,6.97
2023-04-22T13:41:15.695Z,7.63
2023-04-22T13:44:18.047Z,7.35
2023-04-22T13:47:20.892Z,7.83
2023-04-22T13:50:24.027Z,7.03
2023-04-22T13:53:26.678Z,8.18
2023-04-22T13:56:29.564Z,7.50
2023-04-22T13:59:32.231Z,9.35
2023-04-22T14:02:34.747Z,13.07
2023-04-22T14:05:37.199Z,6.43
2023-04-22T14:08:39.682Z,7.60
2023-04-22T14:11:41.975Z,6.90
2023-04-22T14:14:44.430Z,7.75
2023-04-22T14:17:49.498Z,10.30
2023-04-22T14:20:52.996Z,7.57
2023-04-22T14:23:55.247Z,9.80
2023-04-22T14:26:59.624Z,7.80
2023-04-22T14:30:04.367Z,7.95
2023-04-22T14:33:08.233Z,9.13
2023-04-22T14:36:10.791Z,7.13
2023-04-22T14:39:13.088Z,9.55
2023-04-22T14:42:17.779Z,8.90
2023-04-22T14:45:21.810Z,6.13
2023-04-22T14:48:25.498Z,9.73
2023-04-22T14:51:29.162Z,6.78
2023-04-22T14:54:32.007Z,7.78
2023-04-22T14:57:34.479Z,8.55
2023-04-22T15:00:37.469Z,7.45
2023-04-22T15:03:40.302Z,7.60
2023-04-22T15:06:42.880Z,7.97
2023-04-22T15:09:45.259Z,6.38
2023-04-22T15:12:47.643Z,8.20
2023-04-22T15:15:50.053Z,8.88
2023-04-22T15:18:52.570Z,7.40
2023-04-22T15:21:54.914Z,7.07
2023-04-22T15:24:57.396Z,7.50
2023-04-22T15:27:59.725Z,9.00
2023-04-22T15:31:02.142Z,10.82
2023-04-22T15:34:04.703Z,6.63
2023-04-22T15:37:07.111Z,9.48
2023-04-22T15:40:10.224Z,7.32
2023-04-22T15:43:12.517Z,9.63
2023-04-22T15:46:15.036Z,6.97
2023-04-22T15:49:17.755Z,19.47
2023-04-22T15:52:20.149Z,11.50
2023-04-22T15:55:22.555Z,11.30
2023-04-22T15:58:24.877Z,30.42
2023-04-22T16:01:27.361Z,10.85
2023-04-22T16:04:29.861Z,7.93
2023-04-22T16:07:32.577Z,12.15
2023-04-22T16:10:35.052Z,10.32
2023-04-22T16:13:39.020Z,9.05
2023-04-22T16:16:41.635Z,7.53
2023-04-22T16:19:44.736Z,6.30
2023-04-22T16:22:47.041Z,6.40
2023-04-22T16:25:50.385Z,6.68
2023-04-22T16:28:52.701Z,6.43
2023-04-22T16:31:56.120Z,11.50
2023-04-22T16:34:58.444Z,16.03
2023-04-22T16:38:00.958Z,10.50
2023-04-22T16:41:03.922Z,7.35
2023-04-22T16:44:06.299Z,8.90
2023-04-22T16:47:08.710Z,9.60
2023-04-22T16:50:12.433Z,9.10
2023-04-22T16:53:14.890Z,12.02
2023-04-22T16:56:17.219Z,9.93
2023-04-22T16:59:19.456Z,11.45
2023-04-22T17:02:22.072Z,11.55
2023-04-22T17:05:24.656Z,19.87
2023-04-22T17:08:26.934Z,19.05
2023-04-22T17:11:32.332Z,13.77
2023-04-22T17:14:34.626Z,10.43
2023-04-22T17:17:37.082Z,12.38
2023-04-22T17:20:39.582Z,11.60
2023-04-22T17:23:41.899Z,10.07
2023-04-22T17:26:44.149Z,9.27
2023-04-22T17:29:46.730Z,12.82
2023-04-22T17:32:49.088Z,16.52
2023-04-22T17:35:51.538Z,9.87
2023-04-22T17:38:53.757Z,10.88
2023-04-22T17:41:58.350Z,7.53
2023-04-22T17:45:00.878Z,8.30
2023-04-22T17:48:03.293Z,11.25
2023-04-22T17:51:06.770Z,7.90
2023-04-22T17:54:09.037Z,11.20
2023-04-22T17:57:12.475Z,11.93
2023-04-22T18:00:15.267Z,10.63
2023-04-22T18:03:17.990Z,9.02
2023-04-22T18:06:21.110Z,7.70
2023-04-22T18:09:23.980Z,11.20
2023-04-22T18:12:30.526Z,10.77
2023-04-22T18:15:33.101Z,10.65
2023-04-22T18:18:35.570Z,11.43
2023-04-22T18:21:41.633Z,9.97
2023-04-22T18:24:49.156Z,10.00
2023-04-22T18:27:55.185Z,11.50
2023-04-22T18:30:57.567Z,13.02
2023-04-22T18:33:59.897Z,10.55
2023-04-22T18:37:02.370Z,10.63
2023-04-22T18:40:06.402Z,11.27
2023-04-22T18:43:08.776Z,12.77
2023-04-22T18:46:11.122Z,12.90
2023-04-22T18:49:13.403Z,12.98
2023-04-22T18:52:17.391Z,12.33
2023-04-22T18:55:20.034Z,14.90
2023-04-22T18:58:23.290Z,10.52
2023-04-22T19:01:25.684Z,15.05
2023-04-22T19:04:28.183Z,10.45
2023-04-22T19:07:30.676Z,9.20
2023-04-22T19:10:33.203Z,10.40
2023-04-22T19:13:35.644Z,12.20
2023-04-22T19:16:38.179Z,13.45
2023-04-22T19:19:40.717Z,15.07
2023-04-22T19:22:44.228Z,13.30
2023-04-22T19:25:46.675Z,11.40
2023-04-22T19:28:49.215Z,12.30
2023-04-22T19:31:51.646Z,17.08
2023-04-22T19:34:54.110Z,11.60
2023-04-22T19:37:56.454Z,15.30
2023-04-22T19:40:58.909Z,13.50
2023-04-22T19:44:01.431Z,12.02
2023-04-22T19:47:03.735Z,14.15
2023-04-22T19:50:08.131Z,12.45
2023-04-22T19:53:11.130Z,15.00
2023-04-22T19:56:14.595Z,14.77
2023-04-22T19:59:17.228Z,14.30
2023-04-22T20:02:20.256Z,18.90
2023-04-22T20:05:23.100Z,24.83
2023-04-22T20:08:28.069Z,22.57
2023-04-22T20:11:31.051Z,23.08
2023-04-22T20:14:33.601Z,21.38
2023-04-22T20:17:38.754Z,26.25
2023-04-22T20:20:45.716Z,21.27
2023-04-22T20:23:51.174Z,22.50
2023-04-22T20:26:53.865Z,19.65
2023-04-22T20:30:00.386Z,18.85
2023-04-22T20:33:02.979Z,22.70
2023-04-22T20:36:07.277Z,23.00
2023-04-22T20:39:14.430Z,22.80
2023-04-22T20:42:17.742Z,22.77
2023-04-22T20:45:20.389Z,24.98
2023-04-22T20:48:22.676Z,30.50
2023-04-22T20:51:25.759Z,29.63
2023-04-22T20:54:29.349Z,26.80
2023-04-22T20:57:46.850Z,27.95
2023-04-22T21:00:49.107Z,29.63
2023-04-22T21:03:53.106Z,27.58
2023-04-22T21:06:56.778Z,28.35
2023-04-22T21:09:59.343Z,30.13
2023-04-22T21:13:01.766Z,26.77
2023-04-22T21:16:07.757Z,29.42
2023-04-22T21:19:10.066Z,26.25
2023-04-22T21:22:13.649Z,30.00
2023-04-22T21:25:21.532Z,25.10
2023-04-22T21:28:24.192Z,22.35
2023-04-22T21:31:27.710Z,23.98
2023-04-22T21:34:30.464Z,22.67
2023-04-22T21:37:33.411Z,22.23
2023-04-22T21:40:36.094Z,23.17
2023-04-22T21:43:38.408Z,21.33
2023-04-22T21:46:40.793Z,19.20
2023-04-22T21:49:43.413Z,24.92
2023-04-22T21:52:46.011Z,21.95
2023-04-22T21:55:48.312Z,20.57
2023-04-22T21:58:50.717Z,20.92
2023-04-22T22:01:53.349Z,20.25
2023-04-22T22:04:55.848Z,22.38
2023-04-22T22:07:58.258Z,24.85
2023-04-22T22:11:00.585Z,22.23
2023-04-22T22:14:03.138Z,21.30
2023-04-22T22:17:08.440Z,21.40
2023-04-22T22:20:13.646Z,21.15
2023-04-22T22:23:16.145Z,18.67
2023-04-22T22:26:18.608Z,17.90
2023-04-22T22:29:21.456Z,26.65
2023-04-22T22:32:23.827Z,20.55
2023-04-22T22:35:26.512Z,18.75
2023-04-22T22:38:28.784Z,18.77
2023-04-22T22:41:31.391Z,19.93
2023-04-22T22:44:33.751Z,18.20
2023-04-22T22:47:36.401Z,19.00
2023-04-22T22:50:39.969Z,20.58
2023-04-22T22:53:42.342Z,22.33
2023-04-22T22:56:44.617Z,20.40
2023-04-22T22:59:46.872Z,17.23
2023-04-22T23:02:49.490Z,21.63
2023-04-22T23:05:51.962Z,23.40
2023-04-22T23:08:54.246Z,22.38
2023-04-22T23:11:56.725Z,20.13
2023-04-22T23:14:59.109Z,24.50
2023-04-22T23:18:02.475Z,22.38
2023-04-22T23:21:06.657Z,21.58
2023-04-22T23:24:10.455Z,21.38
2023-04-22T23:27:13.629Z,24.13
2023-04-22T23:30:16.230Z,21.08
2023-04-22T23:33:23.227Z,22.48
2023-04-22T23:36:26.850Z,22.55
2023-04-22T23:39:30.217Z,23.77
2023-04-22T23:42:32.537Z,21.50
2023-04-22T23:45:34.938Z,20.33
2023-04-22T23:48:37.273Z,19.13
2023-04-22T23:51:39.745Z,20.90
2023-04-22T23:54:44.701Z,19.35
2023-04-22T23:57:47.307Z,18.67
